Time;durP1;ratioP1;P1;durP2;ratioP2;P2;SDS_P1;SDS_P2;PMS_P1;PMS_P2;Temp;Humidity;BMP_temperature;BMP_pressure;BME280_temperature;BME280_humidity;BME280_pressure;Samples;Min_cycle;Max_cycle;Signal;HPM_P1;HPM_P2
2023/01/09 00:01:09;;;;;;;0.70;0.70;;;19.30;44.70;;;;;;5013108;28;20227;-70
2023/01/09 00:03:34;;;;;;;0.80;0.80;;;19.30;44.80;;;;;;5016209;28;20249;-71
2023/01/09 00:06:00;;;;;;;0.93;0.83;;;19.30;44.80;;;;;;5013833;28;21914;-69
2023/01/09 00:08:25;;;;;;;0.80;0.80;;;19.30;44.80;;;;;;5009550;28;20230;-70
2023/01/09 00:10:51;;;;;;;0.80;0.80;;;19.30;44.80;;;;;;5011554;28;20234;-69
2023/01/09 00:13:17;;;;;;;0.97;0.87;;;19.20;44.70;;;;;;5014263;28;20219;-70
2023/01/09 00:15:42;;;;;;;1.70;0.80;;;19.20;44.70;;;;;;5011979;28;20265;-69
2023/01/09 00:18:08;;;;;;;0.70;0.70;;;19.30;44.80;;;;;;5012174;28;20239;-70
2023/01/09 00:20:34;;;;;;;1.00;1.00;;;19.30;44.80;;;;;;5012294;28;20235;-70
2023/01/09 00:23:00;;;;;;;1.77;0.73;;;19.30;44.90;;;;;;5012437;28;20302;-70
2023/01/09 00:25:25;;;;;;;1.87;1.50;;;19.30;44.90;;;;;;5013055;28;20438;-70
2023/01/09 00:27:51;;;;;;;1.23;0.80;;;19.30;44.80;;;;;;5009823;28;20238;-70
2023/01/09 00:30:17;;;;;;;0.90;0.80;;;19.30;44.90;;;;;;5014221;28;20223;-70
2023/01/09 00:32:42;;;;;;;0.90;0.73;;;19.30;44.90;;;;;;5010424;28;20228;-70
2023/01/09 00:35:10;;;;;;;0.93;0.83;;;19.30;45.30;;;;;;5010739;28;20317;-70
2023/01/09 00:37:36;;;;;;;0.70;0.70;;;19.30;44.90;;;;;;5012840;28;20230;-70
2023/01/09 00:40:01;;;;;;;0.90;0.90;;;19.30;44.90;;;;;;5010714;28;20445;-70
2023/01/09 00:42:30;;;;;;;1.00;0.80;;;19.30;44.90;;;;;;5002338;28;20231;-69
2023/01/09 00:45:00;;;;;;;1.00;0.90;;;19.30;44.90;;;;;;5015107;28;20721;-69
2023/01/09 00:47:31;;;;;;;0.80;0.80;;;19.30;44.90;;;;;;5009773;28;20455;-70
2023/01/09 00:50:05;;;;;;;0.80;0.80;;;19.30;44.90;;;;;;5013449;28;20475;-70
2023/01/09 00:52:33;;;;;;;0.80;0.80;;;19.30;44.90;;;;;;5016872;28;20442;-69
2023/01/09 00:54:59;;;;;;;0.97;0.70;;;19.30;45.30;;;;;;5018496;28;20438;-70
2023/01/09 00:57:25;;;;;;;0.80;0.70;;;19.30;44.90;;;;;;5015679;28;20955;-70
2023/01/09 00:59:51;;;;;;;0.80;0.70;;;19.30;44.90;;;;;;5020487;28;20452;-70
2023/01/09 01:02:17;;;;;;;3.20;0.90;;;19.30;45.00;;;;;;5013718;28;20227;-70
2023/01/09 01:07:44;;;;;;;0.80;0.70;;;19.30;45.00;;;;;;5016060;28;20226;-69
2023/01/09 01:10:15;;;;;;;0.87;0.87;;;19.20;44.80;;;;;;5018258;28;20422;-70
2023/01/09 01:12:41;;;;;;;0.70;0.70;;;19.20;44.90;;;;;;5012305;28;20484;-70
2023/01/09 01:15:08;;;;;;;0.70;0.70;;;19.20;44.90;;;;;;5018175;28;20430;-70
2023/01/09 01:17:35;;;;;;;1.00;0.77;;;19.20;44.90;;;;;;5018288;28;20442;-70
2023/01/09 01:20:02;;;;;;;0.97;0.80;;;19.20;44.90;;;;;;5016162;28;20452;-70
2023/01/09 01:22:27;;;;;;;0.70;0.60;;;19.30;45.00;;;;;;5018058;28;20415;-70
2023/01/09 01:24:53;;;;;;;0.70;0.70;;;19.20;44.90;;;;;;5016083;28;20511;-70
2023/01/09 01:27:19;;;;;;;0.70;0.70;;;19.30;45.00;;;;;;5016552;28;20306;-70
2023/01/09 01:29:44;;;;;;;0.90;0.80;;;19.20;44.90;;;;;;5017432;28;20571;-70
2023/01/09 01:32:10;;;;;;;0.70;0.60;;;19.30;44.90;;;;;;5018365;28;20298;-70
2023/01/09 01:34:36;;;;;;;0.70;0.70;;;19.20;44.80;;;;;;5016443;28;20299;-70
2023/01/09 01:37:01;;;;;;;0.70;0.70;;;19.30;45.40;;;;;;5016096;28;20546;-70
2023/01/09 01:39:27;;;;;;;0.90;0.70;;;19.20;44.90;;;;;;5018009;28;20269;-68
2023/01/09 01:41:52;;;;;;;1.00;0.80;;;19.30;45.00;;;;;;5017619;28;20242;-70
2023/01/09 01:44:55;;;;;;;0.70;0.67;;;19.30;45.00;;;;;;5015553;28;20235;-69
2023/01/09 01:47:26;;;;;;;0.80;0.70;;;19.30;44.90;;;;;;5014442;28;20278;-70
2023/01/09 01:49:52;;;;;;;0.80;0.77;;;19.20;44.90;;;;;;5006269;28;20467;-69
2023/01/09 01:52:19;;;;;;;0.90;0.70;;;19.30;45.00;;;;;;5017364;28;20512;-68
2023/01/09 01:54:45;;;;;;;0.80;0.80;;;19.30;45.00;;;;;;5012838;28;20235;-70
2023/01/09 01:57:11;;;;;;;0.80;0.70;;;19.20;44.90;;;;;;5016703;28;20831;-70
2023/01/09 01:59:41;;;;;;;1.03;0.70;;;19.30;45.00;;;;;;5014529;28;20497;-70
2023/01/09 02:02:08;;;;;;;0.90;0.80;;;19.30;45.00;;;;;;5005061;28;20452;-70
2023/01/09 02:04:38;;;;;;;0.80;0.70;;;19.20;44.90;;;;;;5017042;28;20461;-70
2023/01/09 02:07:07;;;;;;;4.47;0.80;;;19.30;45.00;;;;;;5015987;28;20521;-70
2023/01/09 02:09:33;;;;;;;0.70;0.70;;;19.30;45.00;;;;;;5014929;28;20961;-71
2023/01/09 02:12:00;;;;;;;0.93;0.73;;;19.30;45.00;;;;;;5017978;28;20444;-69
2023/01/09 02:14:29;;;;;;;0.80;0.80;;;19.20;44.90;;;;;;5013892;28;20333;-70
2023/01/09 02:17:22;;;;;;;1.60;0.70;;;19.30;45.00;;;;;;5016103;28;20447;-69
2023/01/09 02:20:25;;;;;;;1.27;0.73;;;19.30;45.00;;;;;;5014458;28;20458;-69
2023/01/09 02:23:02;;;;;;;0.90;0.70;;;19.20;44.90;;;;;;5014728;28;20433;-70
2023/01/09 02:25:40;;;;;;;0.80;0.70;;;19.20;44.90;;;;;;5013230;28;20445;-69
2023/01/09 02:28:20;;;;;;;0.70;0.60;;;19.20;44.90;;;;;;5015404;28;20668;-70
2023/01/09 02:31:04;;;;;;;0.70;0.70;;;19.20;45.00;;;;;;5017365;28;20452;-70
2023/01/09 02:33:48;;;;;;;0.70;0.70;;;19.20;44.90;;;;;;5015999;28;20488;-70
2023/01/09 02:36:29;;;;;;;0.87;0.70;;;19.20;44.90;;;;;;5016940;28;20451;-68
2023/01/09 02:39:13;;;;;;;0.97;0.70;;;19.20;44.90;;;;;;5015588;28;22210;-70
2023/01/09 02:41:52;;;;;;;0.73;0.70;;;19.20;45.00;;;;;;5015330;28;20494;-70
2023/01/09 02:44:27;;;;;;;0.90;0.67;;;19.20;44.90;;;;;;5014167;28;20459;-69
2023/01/09 02:46:59;;;;;;;0.87;0.70;;;19.20;44.90;;;;;;5013419;28;20462;-70
2023/01/09 02:49:26;;;;;;;0.80;0.70;;;19.20;45.00;;;;;;5015999;28;20480;-69
2023/01/09 02:51:59;;;;;;;0.77;0.70;;;19.20;45.00;;;;;;5013426;28;20449;-70
2023/01/09 02:54:40;;;;;;;0.77;0.63;;;19.20;45.00;;;;;;5014566;28;20430;-70
2023/01/09 02:57:08;;;;;;;0.80;0.63;;;19.20;45.00;;;;;;5015563;28;20462;-70
2023/01/09 02:59:46;;;;;;;0.70;0.60;;;19.20;44.90;;;;;;5012682;28;20511;-70
2023/01/09 03:02:14;;;;;;;0.80;0.70;;;19.20;45.00;;;;;;5012471;28;20468;-69
2023/01/09 03:05:13;;;;;;;0.80;0.70;;;19.20;44.90;;;;;;5010478;28;20469;-70
2023/01/09 03:07:48;;;;;;;0.77;0.73;;;19.20;45.00;;;;;;5011810;28;20429;-70
2023/01/09 03:10:21;;;;;;;0.77;0.63;;;19.20;44.90;;;;;;5013658;28;20467;-70
2023/01/09 03:12:49;;;;;;;1.83;0.73;;;19.20;44.90;;;;;;5013362;28;20429;-71
2023/01/09 03:15:18;;;;;;;0.70;0.60;;;19.20;45.00;;;;;;5010717;28;20423;-70
2023/01/09 03:17:47;;;;;;;0.87;0.80;;;19.20;45.00;;;;;;5016106;28;20791;-69
2023/01/09 03:20:17;;;;;;;0.70;0.70;;;19.20;44.90;;;;;;5014926;28;20446;-70
2023/01/09 03:22:58;;;;;;;0.83;0.80;;;19.20;45.00;;;;;;5014602;28;20530;-71
2023/01/09 03:25:25;;;;;;;0.73;0.60;;;19.20;44.90;;;;;;5011292;28;20435;-70
2023/01/09 03:27:55;;;;;;;0.70;0.70;;;19.20;44.90;;;;;;4997250;28;20442;-70
2023/01/09 03:30:21;;;;;;;0.60;0.50;;;19.20;44.90;;;;;;5011251;28;20459;-70
2023/01/09 03:32:46;;;;;;;0.77;0.77;;;19.20;45.00;;;;;;5014848;28;20470;-70
2023/01/09 03:35:12;;;;;;;0.80;0.60;;;19.20;45.00;;;;;;5012864;28;20233;-70
2023/01/09 03:37:38;;;;;;;0.70;0.70;;;19.20;44.90;;;;;;5012219;28;20356;-70
2023/01/09 03:40:04;;;;;;;0.70;0.60;;;19.20;45.00;;;;;;5012676;28;20226;-69
2023/01/09 03:42:29;;;;;;;0.70;0.60;;;19.20;44.90;;;;;;5013025;28;20282;-70
2023/01/09 03:44:55;;;;;;;0.80;0.70;;;19.20;44.90;;;;;;5011364;28;20471;-70
2023/01/09 03:47:20;;;;;;;0.70;0.60;;;19.20;45.00;;;;;;5011336;28;20238;-69
2023/01/09 03:49:46;;;;;;;0.70;0.63;;;19.20;45.00;;;;;;5013624;28;20295;-70
2023/01/09 03:52:12;;;;;;;0.70;0.60;;;19.20;45.00;;;;;;4997285;28;20227;-70
2023/01/09 03:54:38;;;;;;;1.00;0.60;;;19.20;45.00;;;;;;5014166;28;20277;-69
2023/01/09 03:57:04;;;;;;;0.70;0.50;;;19.20;45.00;;;;;;5011246;28;20446;-70
2023/01/09 03:59:29;;;;;;;0.90;0.80;;;19.20;45.00;;;;;;5012712;28;20221;-70
2023/01/09 04:01:55;;;;;;;0.80;0.70;;;19.20;45.00;;;;;;5013552;28;20215;-70
2023/01/09 04:04:20;;;;;;;0.70;0.60;;;19.20;45.00;;;;;;5016229;28;20284;-70
2023/01/09 04:06:46;;;;;;;0.60;0.60;;;19.20;44.90;;;;;;5014576;28;20230;-68
2023/01/09 04:09:11;;;;;;;0.70;0.60;;;19.20;44.90;;;;;;5012970;28;20223;-69
2023/01/09 04:11:37;;;;;;;0.90;0.73;;;19.20;45.00;;;;;;5013172;28;20221;-70
2023/01/09 04:14:03;;;;;;;0.80;0.60;;;19.20;45.00;;;;;;5000320;28;20349;-70
2023/01/09 04:16:28;;;;;;;0.80;0.70;;;19.20;45.00;;;;;;5011003;28;20232;-71
2023/01/09 04:18:54;;;;;;;0.70;0.50;;;19.20;45.00;;;;;;5013061;28;20215;-70
2023/01/09 04:21:20;;;;;;;0.70;0.50;;;19.20;44.90;;;;;;5015608;28;20689;-69
2023/01/09 04:23:45;;;;;;;0.80;0.60;;;19.20;45.00;;;;;;5010234;28;20238;-70
2023/01/09 04:26:11;;;;;;;0.80;0.60;;;19.20;45.00;;;;;;5014316;28;20220;-69
2023/01/09 04:28:36;;;;;;;0.67;0.60;;;19.20;45.00;;;;;;5016228;28;20210;-70
2023/01/09 04:31:02;;;;;;;0.73;0.73;;;19.20;45.00;;;;;;5016779;28;20241;-68
2023/01/09 04:33:28;;;;;;;0.60;0.53;;;19.20;44.90;;;;;;5017689;28;20270;-70
2023/01/09 04:35:53;;;;;;;0.80;0.60;;;19.20;45.00;;;;;;5002199;28;20223;-70
2023/01/09 04:38:19;;;;;;;0.83;0.60;;;19.20;44.90;;;;;;5017281;28;20254;-70
2023/01/09 04:40:48;;;;;;;0.70;0.70;;;19.20;45.00;;;;;;5019184;28;20681;-70
2023/01/09 04:43:14;;;;;;;0.80;0.77;;;19.20;44.90;;;;;;5018362;28;20221;-70
2023/01/09 04:45:39;;;;;;;0.70;0.60;;;19.20;44.90;;;;;;5016113;28;20464;-70
2023/01/09 04:48:05;;;;;;;0.70;0.60;;;19.20;44.90;;;;;;5015803;28;20243;-70
2023/01/09 04:50:31;;;;;;;0.80;0.73;;;19.20;44.90;;;;;;5017112;28;20266;-70
2023/01/09 04:52:57;;;;;;;0.73;0.50;;;19.20;44.80;;;;;;5016335;28;20688;-70
2023/01/09 04:55:22;;;;;;;0.60;0.60;;;19.20;44.80;;;;;;5017642;28;20310;-70
2023/01/09 04:57:48;;;;;;;0.80;0.70;;;19.20;44.80;;;;;;5014776;28;20872;-68
2023/01/09 05:00:14;;;;;;;0.80;0.70;;;19.20;44.80;;;;;;5018912;28;20315;-70
2023/01/09 05:02:40;;;;;;;0.70;0.60;;;19.30;44.90;;;;;;5015385;28;20257;-70
2023/01/09 05:05:07;;;;;;;0.90;0.60;;;19.30;44.80;;;;;;5002016;28;20458;-69
2023/01/09 05:07:33;;;;;;;0.70;0.60;;;19.30;44.80;;;;;;5016886;28;20261;-70
2023/01/09 05:09:59;;;;;;;0.60;0.50;;;19.20;44.70;;;;;;5016549;28;20463;-69
2023/01/09 05:12:25;;;;;;;0.83;0.70;;;19.30;44.80;;;;;;5000450;28;20471;-70
2023/01/09 05:14:50;;;;;;;0.93;0.63;;;19.30;44.80;;;;;;5016748;28;20427;-69
2023/01/09 05:17:16;;;;;;;0.67;0.60;;;19.30;44.70;;;;;;5019921;28;20234;-71
2023/01/09 05:19:44;;;;;;;0.83;0.60;;;19.30;44.80;;;;;;5014931;28;20250;-71
2023/01/09 05:22:10;;;;;;;0.70;0.60;;;19.30;44.70;;;;;;5016015;28;20743;-71
2023/01/09 05:24:36;;;;;;;0.80;0.70;;;19.30;44.70;;;;;;5016895;28;20862;-70
2023/01/09 05:27:02;;;;;;;0.70;0.60;;;19.30;44.60;;;;;;5019794;28;20442;-70
2023/01/09 05:29:27;;;;;;;0.80;0.60;;;19.30;44.50;;;;;;5014007;28;20257;-74
2023/01/09 05:31:53;;;;;;;0.70;0.60;;;19.40;44.50;;;;;;5016025;28;20219;-70
2023/01/09 05:34:19;;;;;;;0.70;0.60;;;19.40;44.40;;;;;;5018126;28;20218;-68
2023/01/09 05:36:45;;;;;;;1.43;0.60;;;19.40;44.30;;;;;;5015908;28;20238;-68
2023/01/09 05:39:10;;;;;;;0.70;0.57;;;19.40;44.20;;;;;;5009442;28;21092;-69
2023/01/09 05:41:36;;;;;;;0.90;0.70;;;19.40;44.20;;;;;;5013111;28;20748;-73
2023/01/09 05:44:03;;;;;;;0.70;0.67;;;19.40;44.20;;;;;;5014934;28;20234;-70
2023/01/09 05:46:29;;;;;;;0.70;0.60;;;19.40;44.20;;;;;;5010336;28;20215;-70
2023/01/09 05:48:55;;;;;;;0.70;0.63;;;19.40;44.20;;;;;;5013507;28;20969;-70
2023/01/09 05:51:20;;;;;;;0.70;0.53;;;19.40;44.20;;;;;;5014827;28;20421;-70
2023/01/09 05:53:46;;;;;;;0.87;0.70;;;19.40;44.30;;;;;;5015790;28;20323;-69
2023/01/09 05:56:11;;;;;;;0.60;0.50;;;19.40;44.20;;;;;;5006139;28;20216;-69
2023/01/09 05:58:37;;;;;;;0.67;0.57;;;19.40;44.30;;;;;;5012126;28;20257;-70
2023/01/09 06:01:03;;;;;;;0.80;0.60;;;19.40;44.20;;;;;;5012760;28;20301;-70
2023/01/09 06:03:28;;;;;;;0.70;0.60;;;19.40;44.40;;;;;;5011556;28;20284;-70
2023/01/09 06:05:54;;;;;;;1.67;0.70;;;19.40;44.30;;;;;;5013327;28;20293;-70
2023/01/09 06:08:19;;;;;;;1.03;0.60;;;19.40;44.30;;;;;;5016519;28;20705;-70
2023/01/09 06:10:45;;;;;;;1.53;0.70;;;19.40;44.40;;;;;;5017261;28;21030;-70
2023/01/09 06:13:11;;;;;;;0.60;0.50;;;19.40;44.40;;;;;;5014329;28;20301;-69
2023/01/09 06:15:36;;;;;;;0.80;0.70;;;19.40;44.30;;;;;;5013433;28;20857;-69
2023/01/09 06:18:03;;;;;;;1.07;0.90;;;19.40;44.40;;;;;;5000546;28;20286;-69
2023/01/09 06:20:29;;;;;;;0.77;0.67;;;19.40;44.40;;;;;;5011558;28;20882;-68
2023/01/09 06:22:54;;;;;;;3.70;0.80;;;19.40;44.20;;;;;;5014620;28;20493;-72
2023/01/09 06:25:20;;;;;;;0.97;0.67;;;19.40;44.30;;;;;;5011852;28;20365;-69
2023/01/09 06:27:45;;;;;;;0.90;0.60;;;19.40;44.30;;;;;;4999649;28;20223;-69
2023/01/09 06:30:11;;;;;;;1.20;0.80;;;19.40;44.20;;;;;;5013155;28;20215;-70
2023/01/09 06:32:37;;;;;;;0.90;0.70;;;19.40;44.20;;;;;;5013037;28;20223;-70
2023/01/09 06:35:02;;;;;;;1.80;0.60;;;19.40;44.30;;;;;;5015777;28;20222;-69
2023/01/09 06:37:28;;;;;;;0.90;0.60;;;19.40;44.30;;;;;;5011438;28;20865;-69
2023/01/09 06:39:54;;;;;;;1.30;0.60;;;19.40;44.30;;;;;;5016509;28;20227;-70
2023/01/09 06:42:20;;;;;;;0.70;0.70;;;19.40;44.40;;;;;;5015078;28;20565;-69
2023/01/09 06:44:46;;;;;;;0.80;0.60;;;19.40;44.30;;;;;;5014992;28;20223;-70
2023/01/09 06:47:11;;;;;;;1.40;0.80;;;19.40;44.30;;;;;;5002453;28;20450;-69
2023/01/09 06:49:37;;;;;;;0.90;0.70;;;19.40;44.40;;;;;;5012528;28;20231;-69
2023/01/09 06:52:04;;;;;;;1.00;1.00;;;19.40;44.30;;;;;;4995657;28;20637;-70
2023/01/09 06:54:30;;;;;;;0.90;0.80;;;19.40;44.30;;;;;;5015056;28;20219;-69
2023/01/09 06:56:55;;;;;;;1.27;0.50;;;19.40;44.20;;;;;;5013549;28;20530;-70
2023/01/09 06:59:21;;;;;;;1.00;0.70;;;19.40;44.20;;;;;;5016800;28;20230;-70
2023/01/09 07:01:46;;;;;;;1.30;0.70;;;19.40;44.40;;;;;;5010603;28;20231;-70
2023/01/09 07:04:12;;;;;;;1.67;0.60;;;19.40;44.30;;;;;;5017311;28;20239;-70
2023/01/09 07:06:38;;;;;;;1.20;0.73;;;19.40;44.30;;;;;;5015540;28;20223;-69
2023/01/09 07:09:04;;;;;;;0.90;0.60;;;19.40;44.40;;;;;;5013236;28;20218;-70
2023/01/09 07:11:31;;;;;;;1.03;0.77;;;19.40;44.30;;;;;;5012742;28;20429;-70
2023/01/09 07:13:56;;;;;;;0.80;0.70;;;19.40;44.30;;;;;;5012420;28;20462;-70
2023/01/09 07:16:22;;;;;;;1.10;0.70;;;19.40;44.40;;;;;;5014619;28;20831;-69
2023/01/09 07:18:47;;;;;;;0.70;0.60;;;19.40;44.40;;;;;;5013346;28;20278;-70
2023/01/09 07:21:14;;;;;;;0.80;0.70;;;19.40;44.40;;;;;;5015247;28;20234;-70
2023/01/09 07:23:39;;;;;;;1.00;0.70;;;19.40;44.30;;;;;;5015149;28;20435;-70
2023/01/09 07:26:05;;;;;;;0.60;0.50;;;19.40;44.40;;;;;;5013059;28;20227;-69
2023/01/09 07:28:30;;;;;;;2.00;0.60;;;19.40;44.40;;;;;;5013918;28;20847;-69
2023/01/09 07:30:57;;;;;;;0.80;0.60;;;19.40;44.40;;;;;;5011853;28;20226;-68
2023/01/09 07:33:23;;;;;;;1.17;0.60;;;19.40;44.40;;;;;;5016389;28;20246;-69
2023/01/09 07:35:50;;;;;;;1.83;0.77;;;19.40;44.40;;;;;;5012485;28;20461;-68
2023/01/09 07:38:15;;;;;;;0.80;0.80;;;19.40;44.50;;;;;;5013482;28;20227;-69
2023/01/09 07:40:41;;;;;;;0.80;0.63;;;19.40;44.30;;;;;;5013466;28;20418;-70
2023/01/09 07:43:06;;;;;;;1.27;0.77;;;19.40;44.40;;;;;;5011738;28;20223;-70
2023/01/09 07:45:32;;;;;;;1.13;0.70;;;19.40;44.30;;;;;;5013802;28;20282;-70
2023/01/09 07:47:57;;;;;;;1.00;0.90;;;19.40;44.40;;;;;;5013403;28;20226;-70
2023/01/09 07:50:23;;;;;;;1.10;0.60;;;19.40;44.40;;;;;;5015100;28;20368;-69
2023/01/09 07:52:48;;;;;;;0.70;0.57;;;19.40;44.30;;;;;;5010316;28;20277;-68
2023/01/09 07:55:14;;;;;;;1.07;0.70;;;19.40;44.40;;;;;;4999850;28;20777;-70
2023/01/09 07:57:40;;;;;;;0.60;0.50;;;19.40;44.30;;;;;;5010632;28;20627;-70
2023/01/09 08:00:09;;;;;;;1.20;0.70;;;19.40;44.30;;;;;;5016470;28;20231;-70
2023/01/09 08:02:35;;;;;;;0.93;0.60;;;19.40;44.30;;;;;;5015440;28;20297;-70
2023/01/09 08:05:01;;;;;;;1.60;0.77;;;19.40;44.40;;;;;;5016598;28;20451;-70
2023/01/09 08:07:26;;;;;;;0.80;0.70;;;19.40;44.40;;;;;;5022888;28;20318;-69
2023/01/09 08:09:52;;;;;;;0.83;0.60;;;19.40;44.30;;;;;;5017513;28;20238;-70
2023/01/09 08:12:17;;;;;;;1.00;0.60;;;19.40;44.40;;;;;;5019108;28;20215;-68
2023/01/09 08:14:43;;;;;;;0.90;0.60;;;19.40;44.40;;;;;;5018617;28;21013;-71
2023/01/09 08:17:10;;;;;;;0.87;0.70;;;19.40;44.30;;;;;;5015944;28;20321;-70
2023/01/09 08:19:36;;;;;;;0.80;0.70;;;19.40;44.30;;;;;;5017392;28;20221;-69
2023/01/09 08:22:01;;;;;;;0.80;0.60;;;19.40;44.30;;;;;;5020357;28;20452;-69
2023/01/09 08:24:28;;;;;;;0.80;0.50;;;19.40;44.20;;;;;;5018009;28;20234;-70
2023/01/09 08:26:54;;;;;;;0.90;0.70;;;19.40;44.40;;;;;;5017251;28;20368;-70
2023/01/09 08:29:20;;;;;;;0.80;0.70;;;19.40;44.40;;;;;;5017995;28;20998;-69
2023/01/09 08:31:45;;;;;;;1.97;0.70;;;19.40;44.50;;;;;;5015977;28;20231;-70
2023/01/09 08:34:11;;;;;;;0.93;0.63;;;19.40;44.40;;;;;;5015791;28;20230;-70
2023/01/09 08:36:36;;;;;;;0.80;0.57;;;19.40;44.30;;;;;;5017612;28;20245;-70
2023/01/09 08:39:02;;;;;;;0.90;0.60;;;19.40;44.30;;;;;;5015752;28;21217;-70
2023/01/09 08:47:05;;;;;;;0.80;0.63;;;19.30;44.20;;;;;;5015034;28;20503;-68
2023/01/09 08:49:35;;;;;;;0.60;0.50;;;19.40;44.40;;;;;;5015453;28;20795;-70
2023/01/09 08:52:01;;;;;;;0.90;0.60;;;19.40;44.40;;;;;;5011244;28;20463;-70
2023/01/09 08:54:26;;;;;;;0.80;0.70;;;19.40;44.40;;;;;;5011761;28;20431;-70
2023/01/09 08:56:52;;;;;;;0.80;0.60;;;19.40;44.40;;;;;;5016362;28;20237;-69
2023/01/09 08:59:18;;;;;;;0.60;0.60;;;19.40;44.40;;;;;;5018589;28;20277;-70
2023/01/09 09:01:43;;;;;;;1.90;0.70;;;19.40;44.40;;;;;;5020686;28;20223;-69
2023/01/09 09:04:09;;;;;;;0.70;0.50;;;19.30;44.30;;;;;;5015106;28;20834;-70
2023/01/09 09:06:34;;;;;;;0.70;0.53;;;19.40;44.40;;;;;;5020371;28;20233;-70
2023/01/09 09:09:03;;;;;;;0.87;0.60;;;19.40;44.40;;;;;;5013453;28;20302;-70
2023/01/09 09:11:29;;;;;;;0.70;0.70;;;19.40;44.40;;;;;;5017643;28;20233;-69
2023/01/09 09:13:55;;;;;;;0.73;0.63;;;19.30;44.30;;;;;;5014533;28;20801;-70
2023/01/09 09:16:21;;;;;;;0.70;0.60;;;19.40;44.40;;;;;;5016032;28;20459;-70
2023/01/09 09:18:47;;;;;;;1.90;1.00;;;19.40;44.40;;;;;;5014407;28;20452;-69
2023/01/09 09:21:12;;;;;;;0.93;0.80;;;19.40;44.40;;;;;;5018043;28;20226;-70
2023/01/09 09:23:38;;;;;;;0.97;0.80;;;19.30;44.30;;;;;;5016775;28;20761;-70
2023/01/09 09:26:04;;;;;;;0.83;0.60;;;19.30;44.20;;;;;;5015258;28;20230;-70
2023/01/09 09:28:29;;;;;;;1.03;0.93;;;19.40;44.30;;;;;;5016598;28;20242;-70
2023/01/09 09:30:55;;;;;;;0.70;0.63;;;19.30;44.30;;;;;;5015352;28;20419;-70
2023/01/09 09:33:20;;;;;;;1.03;0.93;;;19.30;44.20;;;;;;5016231;28;20269;-70
2023/01/09 09:35:46;;;;;;;0.80;0.60;;;19.30;44.20;;;;;;5016710;28;20220;-70
2023/01/09 09:38:12;;;;;;;0.70;0.60;;;19.30;44.10;;;;;;5016906;28;21008;-70
2023/01/09 09:40:55;;;;;;;0.90;0.77;;;19.30;44.30;;;;;;5016066;28;20666;-70
2023/01/09 09:46:35;;;;;;;1.10;0.70;;;19.30;44.20;;;;;;5016957;28;20438;-69
2023/01/09 09:49:32;;;;;;;0.93;0.80;;;19.30;44.30;;;;;;5014197;28;20428;-69
2023/01/09 09:52:04;;;;;;;5.50;1.17;;;19.30;44.30;;;;;;5004852;28;20462;-69
2023/01/09 09:54:44;;;;;;;0.70;0.60;;;19.30;44.30;;;;;;5014472;28;20443;-70
2023/01/09 09:57:16;;;;;;;0.70;0.60;;;19.30;44.20;;;;;;4994396;28;20493;-68
2023/01/09 09:59:42;;;;;;;0.60;0.50;;;19.30;44.40;;;;;;4998834;28;20502;-70
2023/01/09 10:02:08;;;;;;;0.70;0.57;;;19.30;44.30;;;;;;5015194;28;20437;-69
2023/01/09 10:04:39;;;;;;;0.90;0.73;;;19.30;44.30;;;;;;5014774;28;20416;-71
2023/01/09 10:07:15;;;;;;;1.00;0.80;;;19.30;44.30;;;;;;5018170;28;20210;-69
2023/01/09 10:09:53;;;;;;;0.70;0.50;;;19.30;44.30;;;;;;5010746;28;20433;-70
2023/01/09 10:12:25;;;;;;;0.90;0.60;;;19.30;45.10;;;;;;5017046;28;20942;-69
2023/01/09 10:14:52;;;;;;;0.67;0.60;;;19.30;44.30;;;;;;5015737;28;20442;-70
2023/01/09 10:17:33;;;;;;;0.80;0.60;;;19.30;44.20;;;;;;5006520;28;20477;-70
2023/01/09 10:20:18;;;;;;;0.80;0.60;;;19.30;44.30;;;;;;5014935;28;20914;-70
2023/01/09 10:23:05;;;;;;;0.80;0.63;;;19.30;44.20;;;;;;5015772;28;20826;-70
2023/01/09 10:25:52;;;;;;;0.80;0.50;;;19.30;44.30;;;;;;5013304;28;20999;-70
2023/01/09 10:28:55;;;;;;;0.83;0.70;;;19.30;44.20;;;;;;5016312;28;20480;-70
2023/01/09 10:31:45;;;;;;;1.00;0.87;;;19.30;44.20;;;;;;5013634;28;20418;-70
2023/01/09 10:34:32;;;;;;;0.90;0.60;;;19.30;44.20;;;;;;5016400;28;20427;-70
2023/01/09 10:37:04;;;;;;;0.70;0.60;;;19.30;44.20;;;;;;5013011;28;20502;-70
2023/01/09 10:39:53;;;;;;;1.10;0.80;;;19.30;44.30;;;;;;5013437;28;20423;-70
2023/01/09 10:42:43;;;;;;;0.77;0.60;;;19.30;44.20;;;;;;5010005;28;20421;-70
2023/01/09 10:45:37;;;;;;;0.80;0.60;;;19.30;44.20;;;;;;5015081;28;20433;-70
2023/01/09 10:48:13;;;;;;;0.80;0.50;;;19.30;44.10;;;;;;5010687;28;20456;-69
2023/01/09 10:50:44;;;;;;;0.90;0.63;;;19.30;44.20;;;;;;5012468;28;20449;-70
2023/01/09 10:53:28;;;;;;;0.70;0.57;;;19.30;44.20;;;;;;5012698;28;20443;-70
2023/01/09 10:55:59;;;;;;;1.00;0.57;;;19.30;44.10;;;;;;5013397;28;20506;-70
2023/01/09 10:58:24;;;;;;;1.37;0.97;;;19.30;44.20;;;;;;5013619;28;20464;-70
2023/01/09 11:00:50;;;;;;;0.70;0.50;;;19.30;44.20;;;;;;5012373;28;20431;-68
2023/01/09 11:03:21;;;;;;;0.80;0.70;;;19.30;44.10;;;;;;5015582;28;20688;-70
2023/01/09 11:05:51;;;;;;;2.00;0.60;;;19.30;44.10;;;;;;5016270;28;20251;-70
2023/01/09 11:08:32;;;;;;;0.73;0.57;;;19.30;44.20;;;;;;5013702;28;21036;-70
2023/01/09 11:11:00;;;;;;;0.70;0.60;;;19.30;44.10;;;;;;5014875;28;20484;-70
2023/01/09 11:13:32;;;;;;;0.70;0.50;;;19.30;44.10;;;;;;5012653;28;20435;-70
2023/01/09 11:16:20;;;;;;;0.80;0.60;;;19.30;44.10;;;;;;5015135;28;20436;-70
2023/01/09 11:18:58;;;;;;;0.67;0.50;;;19.30;44.10;;;;;;4999043;28;20518;-69
2023/01/09 11:21:26;;;;;;;0.80;0.50;;;19.30;44.10;;;;;;5011289;28;20474;-70
2023/01/09 11:23:53;;;;;;;0.60;0.50;;;19.30;44.10;;;;;;5014220;28;20825;-70
2023/01/09 11:26:27;;;;;;;0.90;0.70;;;19.30;44.10;;;;;;5015050;28;20454;-70
2023/01/09 11:29:16;;;;;;;0.80;0.60;;;19.30;44.10;;;;;;5012684;28;20545;-70
2023/01/09 11:31:49;;;;;;;0.60;0.50;;;19.30;44.10;;;;;;5000713;28;21909;-69
2023/01/09 11:34:21;;;;;;;0.77;0.60;;;19.30;44.10;;;;;;5013958;28;20455;-70
2023/01/09 11:36:48;;;;;;;0.70;0.60;;;19.30;44.10;;;;;;5011031;28;20489;-70
2023/01/09 11:39:23;;;;;;;0.80;0.60;;;19.40;44.20;;;;;;5011550;28;21154;-70
2023/01/09 11:42:04;;;;;;;0.60;0.50;;;19.40;44.20;;;;;;5015159;28;20415;-70
2023/01/09 11:44:31;;;;;;;0.70;0.50;;;19.30;44.10;;;;;;5012229;28;20423;-70
2023/01/09 11:46:57;;;;;;;0.80;0.60;;;19.30;44.10;;;;;;5015419;28;20980;-70
2023/01/09 11:49:26;;;;;;;0.60;0.60;;;19.40;44.20;;;;;;5011490;28;20422;-69
2023/01/09 11:52:18;;;;;;;0.73;0.60;;;19.40;44.20;;;;;;5016133;28;20419;-67
2023/01/09 11:54:56;;;;;;;0.70;0.50;;;19.40;44.20;;;;;;5013551;28;20999;-67
2023/01/09 11:57:23;;;;;;;0.63;0.53;;;19.30;44.80;;;;;;5009657;28;20437;-67
2023/01/09 11:59:49;;;;;;;0.90;0.60;;;19.40;44.20;;;;;;5015053;28;20458;-68
2023/01/09 12:02:39;;;;;;;1.10;0.50;;;19.40;44.20;;;;;;5013387;28;20947;-67
2023/01/09 12:05:16;;;;;;;0.67;0.53;;;19.40;44.20;;;;;;5012086;28;20677;-67
2023/01/09 12:08:04;;;;;;;0.70;0.53;;;19.30;44.10;;;;;;5009142;28;20547;-67
2023/01/09 12:10:48;;;;;;;0.87;0.60;;;19.40;44.20;;;;;;5009444;28;20456;-67
2023/01/09 12:13:29;;;;;;;0.60;0.50;;;19.40;44.20;;;;;;5014159;28;20555;-69
2023/01/09 12:15:58;;;;;;;0.60;0.60;;;19.30;44.10;;;;;;5013594;28;20480;-66
2023/01/09 12:19:00;;;;;;;0.87;0.60;;;19.30;44.10;;;;;;5008278;28;20453;-68
2023/01/09 12:21:34;;;;;;;0.63;0.50;;;19.30;44.10;;;;;;5011894;28;20459;-67
2023/01/09 12:24:22;;;;;;;0.60;0.60;;;19.30;44.10;;;;;;4996937;28;20467;-67
2023/01/09 12:27:10;;;;;;;0.70;0.60;;;19.30;44.10;;;;;;5013286;28;20503;-67
2023/01/09 12:29:58;;;;;;;0.63;0.50;;;19.30;44.10;;;;;;5009873;28;20427;-67
2023/01/09 12:32:46;;;;;;;1.53;0.97;;;19.30;44.10;;;;;;5014711;28;20465;-67
2023/01/09 12:35:30;;;;;;;1.03;0.60;;;19.30;44.10;;;;;;5016006;28;20488;-67
2023/01/09 12:38:21;;;;;;;0.60;0.60;;;19.30;44.10;;;;;;5015754;28;20878;-68
2023/01/09 12:41:11;;;;;;;0.77;0.63;;;19.30;44.10;;;;;;5014903;28;20793;-66
2023/01/09 12:43:43;;;;;;;2.70;0.60;;;19.30;44.10;;;;;;5012022;28;20456;-67
2023/01/09 12:46:15;;;;;;;0.60;0.60;;;19.30;44.10;;;;;;5012349;28;20441;-68
2023/01/09 12:49:15;;;;;;;0.70;0.63;;;19.30;44.10;;;;;;5013255;28;20754;-68
2023/01/09 12:52:00;;;;;;;0.80;0.70;;;19.30;44.00;;;;;;5015075;28;20506;-67
2023/01/09 12:54:50;;;;;;;0.77;0.70;;;19.30;44.10;;;;;;5016817;28;20878;-67
2023/01/09 12:57:29;;;;;;;0.80;0.70;;;19.30;44.10;;;;;;5016431;28;20504;-68
2023/01/09 13:00:03;;;;;;;0.70;0.60;;;19.30;44.10;;;;;;5017200;28;20431;-67
2023/01/09 13:02:35;;;;;;;0.70;0.60;;;19.30;44.10;;;;;;5017549;28;20466;-70
2023/01/09 13:05:17;;;;;;;0.90;0.70;;;19.30;44.10;;;;;;5014420;28;20460;-70
2023/01/09 13:07:46;;;;;;;0.70;0.60;;;19.30;44.10;;;;;;5009189;28;20459;-69
2023/01/09 13:10:27;;;;;;;0.67;0.57;;;19.30;44.10;;;;;;5015603;28;20940;-69
2023/01/09 13:12:54;;;;;;;0.70;0.60;;;19.30;44.10;;;;;;5013366;28;20452;-68
2023/01/09 13:15:29;;;;;;;0.90;0.70;;;19.30;44.10;;;;;;5017981;28;20831;-68